createdAt,value
2022-11-05T00:05:23.585Z,100967.06
2022-11-05T00:10:49.313Z,100978.72
2022-11-05T00:16:36.349Z,100977.91
2022-11-05T00:22:19.491Z,100988.72
2022-11-05T00:27:49.921Z,100976.22
2022-11-05T00:33:20.786Z,100979.97
2022-11-05T00:38:44.345Z,100984.91
2022-11-05T00:44:30.244Z,100985.94
2022-11-05T00:50:00.909Z,100986.13
2022-11-05T00:55:26.336Z,100988.16
2022-11-05T01:00:56.995Z,101000.22
2022-11-05T01:06:27.760Z,101000.22
2022-11-05T01:11:55.802Z,101011.91
2022-11-05T01:17:22.165Z,101001.28
2022-11-05T01:22:52.816Z,100991.09
2022-11-05T01:28:21.662Z,100996.38
2022-11-05T01:33:45.951Z,101009.22
2022-11-05T01:39:16.992Z,101011.56
2022-11-05T01:45:01.292Z,101014.28
2022-11-05T01:50:36.044Z,101019.69
2022-11-05T01:56:10.947Z,101029.19
2022-11-05T02:01:36.549Z,101021.72
2022-11-05T02:07:01.497Z,101019.97
2022-11-05T02:12:29.263Z,101040.13
2022-11-05T02:18:11.205Z,101035.16
2022-11-05T02:24:02.359Z,101049.13
2022-11-05T02:30:06.683Z,101055.00
2022-11-05T02:35:54.009Z,101066.50
2022-11-05T02:41:24.855Z,101059.22
2022-11-05T02:46:57.690Z,101068.00
2022-11-05T02:52:38.825Z,101067.63
2022-11-05T02:58:04.210Z,101061.94
2022-11-05T03:03:38.399Z,101047.22
2022-11-05T03:09:33.546Z,101062.44
2022-11-05T03:15:13.845Z,101059.06
2022-11-05T03:20:48.378Z,101052.19
2022-11-05T03:26:24.640Z,101057.41
2022-11-05T03:31:56.681Z,101058.06
2022-11-05T03:37:29.157Z,101059.06
2022-11-05T03:43:00.691Z,101053.41
2022-11-05T03:48:27.783Z,101060.94
2022-11-05T03:53:59.083Z,101064.28
2022-11-05T03:59:31.448Z,101060.28
2022-11-05T04:04:55.976Z,101070.63
2022-11-05T04:10:42.820Z,101082.22
2022-11-05T04:16:30.231Z,101078.94
2022-11-05T04:22:17.007Z,101085.56
2022-11-05T04:27:44.914Z,101095.25
2022-11-05T04:33:16.311Z,101097.38
2022-11-05T04:38:38.565Z,101108.25
2022-11-05T04:44:04.387Z,101117.94
2022-11-05T04:49:34.899Z,101110.88
2022-11-05T04:55:03.020Z,101110.88
2022-11-05T05:00:26.943Z,101108.81
2022-11-05T05:05:58.255Z,101106.50
2022-11-05T05:11:25.528Z,101115.75
2022-11-05T05:16:52.095Z,101103.63
2022-11-05T05:22:23.219Z,101108.81
2022-11-05T05:27:52.628Z,101118.34
2022-11-05T05:33:17.951Z,101120.66
2022-11-05T05:38:44.275Z,101127.19
2022-11-05T05:44:13.581Z,101138.94
2022-11-05T05:49:42.502Z,101162.56
2022-11-05T05:55:12.605Z,101173.13
2022-11-05T06:00:41.144Z,101195.56
2022-11-05T06:06:06.276Z,101201.75
2022-11-05T06:11:30.883Z,101206.63
2022-11-05T06:17:00.318Z,101204.56
2022-11-05T06:22:23.853Z,101211.44
2022-11-05T06:27:50.750Z,101219.72
2022-11-05T06:33:19.644Z,101223.25
2022-11-05T06:38:43.495Z,101223.50
2022-11-05T06:44:08.360Z,101215.66
2022-11-05T06:49:37.594Z,101218.59
2022-11-05T06:55:02.491Z,101218.44
2022-11-05T07:00:33.807Z,101213.53
2022-11-05T07:06:04.571Z,101213.50
2022-11-05T07:11:32.078Z,101213.59
2022-11-05T07:17:02.879Z,101213.22
2022-11-05T07:22:32.883Z,101214.88
2022-11-05T07:27:59.998Z,101217.94
2022-11-05T07:33:32.348Z,101219.50
2022-11-05T07:39:00.579Z,101221.72
2022-11-05T07:44:29.238Z,101230.25
2022-11-05T07:50:00.233Z,101230.50
2022-11-05T07:55:23.787Z,101236.97
2022-11-05T08:00:51.700Z,101236.38
2022-11-05T08:06:23.416Z,101243.25
2022-11-05T08:11:58.575Z,101245.69
2022-11-05T08:17:30.508Z,101249.25
2022-11-05T08:22:56.907Z,101255.97
2022-11-05T08:28:21.919Z,101257.53
2022-11-05T08:33:45.058Z,101264.06
2022-11-05T08:39:18.796Z,101267.34
2022-11-05T08:44:48.193Z,101261.94
2022-11-05T08:50:11.842Z,101264.31
2022-11-05T08:55:44.002Z,101267.22
2022-11-05T09:01:09.800Z,101260.91
2022-11-05T09:06:39.089Z,101253.97
2022-11-05T09:12:12.692Z,101251.44
2022-11-05T09:17:38.754Z,101259.91
2022-11-05T09:23:01.901Z,101264.25
2022-11-05T09:28:28.604Z,101275.94
2022-11-05T09:33:52.877Z,101288.56
2022-11-05T09:39:16.462Z,101291.72
2022-11-05T09:44:45.966Z,101282.31
2022-11-05T09:50:20.139Z,101285.25
2022-11-05T09:55:46.733Z,101289.41
2022-11-05T10:01:26.698Z,101289.34
2022-11-05T10:07:00.986Z,101278.81
2022-11-05T10:12:38.713Z,101290.13
2022-11-05T10:18:20.200Z,101285.19
2022-11-05T10:23:44.458Z,101287.28
2022-11-05T10:29:17.096Z,101281.88
2022-11-05T10:34:45.948Z,101288.19
2022-11-05T10:40:20.820Z,101297.81
2022-11-05T10:45:57.360Z,101283.16
2022-11-05T10:51:22.240Z,101287.50
2022-11-05T10:56:45.867Z,101290.44
2022-11-05T11:02:22.885Z,101285.38
2022-11-05T11:07:55.177Z,101285.00
2022-11-05T11:13:24.312Z,101279.06
2022-11-05T11:18:47.907Z,101280.16
2022-11-05T11:24:23.447Z,101286.84
2022-11-05T11:29:49.701Z,101289.72
2022-11-05T11:35:22.773Z,101291.41
2022-11-05T11:40:52.767Z,101287.34
2022-11-05T11:46:20.912Z,101293.03
2022-11-05T11:51:51.605Z,101287.31
2022-11-05T11:57:24.638Z,101300.47
2022-11-05T12:03:14.725Z,101298.38
2022-11-05T12:08:58.199Z,101303.25
2022-11-05T12:14:46.100Z,101292.16
2022-11-05T12:20:30.145Z,101298.69
2022-11-05T12:25:59.406Z,101303.13
2022-11-05T12:31:30.588Z,101306.31
2022-11-05T12:37:13.715Z,101312.47
2022-11-05T12:43:11.970Z,101322.91
2022-11-05T12:48:56.820Z,101322.47
2022-11-05T12:54:38.948Z,101329.38
2022-11-05T13:00:15.815Z,101338.34
2022-11-05T13:05:52.391Z,101345.41
2022-11-05T13:11:22.545Z,101358.31
2022-11-05T13:16:55.548Z,101360.75
2022-11-05T13:22:32.094Z,101372.38
2022-11-05T13:28:07.832Z,101369.41
2022-11-05T13:33:41.201Z,101385.19
2022-11-05T13:39:19.174Z,101387.53
2022-11-05T13:45:26.751Z,101396.91
2022-11-05T13:51:22.456Z,101398.69
2022-11-05T13:57:04.924Z,101401.75
2022-11-05T14:02:37.264Z,101409.66
2022-11-05T14:08:11.428Z,101416.25
2022-11-05T14:13:45.598Z,101424.69
2022-11-05T14:19:36.027Z,101431.56
2022-11-05T14:25:03.822Z,101438.13
2022-11-05T14:30:46.225Z,101449.09
2022-11-05T14:36:32.322Z,101467.47
2022-11-05T14:42:04.911Z,101467.91
2022-11-05T14:47:41.804Z,101487.19
2022-11-05T14:53:14.050Z,101501.28
2022-11-05T14:58:41.944Z,101515.06
2022-11-05T15:04:27.237Z,101517.09
2022-11-05T15:10:01.575Z,101523.53
2022-11-05T15:15:40.224Z,101523.25
2022-11-05T15:21:05.927Z,101532.63
2022-11-05T15:26:43.652Z,101546.88
2022-11-05T15:32:18.951Z,101561.97
2022-11-05T15:37:58.859Z,101567.59
2022-11-05T15:43:31.435Z,101562.38
2022-11-05T15:49:00.816Z,101568.13
2022-11-05T15:54:30.582Z,101578.59
2022-11-05T16:00:04.028Z,101584.03
2022-11-05T16:05:35.280Z,101588.28
2022-11-05T16:11:06.513Z,101603.28
2022-11-05T16:16:35.746Z,101608.69
2022-11-05T16:22:04.193Z,101611.19
2022-11-05T16:27:34.916Z,101620.81
2022-11-05T16:33:09.030Z,101634.97
2022-11-05T16:38:37.875Z,101639.38
2022-11-05T16:44:11.240Z,101644.94
2022-11-05T16:49:40.464Z,101647.31
2022-11-05T16:55:04.956Z,101657.59
2022-11-05T17:00:32.888Z,101666.34
2022-11-05T17:06:03.375Z,101660.91
2022-11-05T17:11:32.999Z,101672.03
2022-11-05T17:17:01.365Z,101674.72
2022-11-05T17:22:25.673Z,101678.38
2022-11-05T17:27:49.146Z,101682.38
2022-11-05T17:33:17.618Z,101690.13
2022-11-05T17:38:44.514Z,101685.03
2022-11-05T17:44:11.755Z,101677.19
2022-11-05T17:49:36.096Z,101687.13
2022-11-05T17:55:08.606Z,101692.38
2022-11-05T18:00:39.301Z,101695.75
2022-11-05T18:06:14.348Z,101702.47
2022-11-05T18:17:27.046Z,101709.25
2022-11-05T18:22:59.355Z,101703.81
2022-11-05T18:28:23.562Z,101710.38
2022-11-05T18:33:49.572Z,101709.03
2022-11-05T18:39:17.277Z,101712.75
2022-11-05T18:44:47.524Z,101725.13
2022-11-05T18:50:18.566Z,101728.09
2022-11-05T18:55:51.104Z,101735.09
2022-11-05T19:01:23.242Z,101744.41
2022-11-05T19:06:56.934Z,101755.25
2022-11-05T19:12:33.489Z,101760.13
2022-11-05T19:18:05.671Z,101771.44
2022-11-05T19:23:46.677Z,101763.81
2022-11-05T19:29:16.935Z,101773.44
2022-11-05T19:34:45.678Z,101770.00
2022-11-05T19:40:18.245Z,101782.88
2022-11-05T19:45:45.022Z,101786.16
2022-11-05T19:51:16.212Z,101783.72
2022-11-05T19:56:42.419Z,101791.44
2022-11-05T20:02:16.188Z,101791.44
2022-11-05T20:07:43.614Z,101786.34
2022-11-05T20:13:19.767Z,101799.50
2022-11-05T20:18:52.211Z,101797.66
2022-11-05T20:24:24.800Z,101803.53
2022-11-05T20:29:54.844Z,101811.09
2022-11-05T20:35:21.164Z,101806.31
2022-11-05T20:40:46.029Z,101805.47
2022-11-05T20:46:16.976Z,101801.00
2022-11-05T20:51:42.422Z,101792.75
2022-11-05T20:57:09.057Z,101803.38
2022-11-05T21:02:35.961Z,101802.13
2022-11-05T21:08:06.578Z,101806.81
2022-11-05T21:13:41.791Z,101804.44
2022-11-05T21:19:32.486Z,101811.50
2022-11-05T21:25:06.008Z,101800.75
2022-11-05T21:30:34.726Z,101800.91
2022-11-05T21:36:08.217Z,101797.38
2022-11-05T21:41:33.379Z,101800.94
2022-11-05T21:46:58.391Z,101803.16
2022-11-05T21:52:45.104Z,101813.59
2022-11-05T21:58:32.769Z,101814.69
2022-11-05T22:04:03.308Z,101805.91
2022-11-05T22:09:33.120Z,101809.00
2022-11-05T22:15:04.310Z,101813.00
2022-11-05T22:20:28.184Z,101813.91
2022-11-05T22:25:59.388Z,101829.59
2022-11-05T22:31:35.690Z,101840.09
2022-11-05T22:37:05.830Z,101849.28
2022-11-05T22:42:29.580Z,101842.16
2022-11-05T22:47:56.678Z,101851.13
2022-11-05T22:53:25.644Z,101857.63
2022-11-05T22:58:53.124Z,101857.03
2022-11-05T23:04:23.984Z,101870.31
2022-11-05T23:10:10.390Z,101870.31
2022-11-05T23:15:56.633Z,101881.63
2022-11-05T23:21:49.923Z,101873.66
2022-11-05T23:27:18.328Z,101879.31
2022-11-05T23:32:42.331Z,101874.78
2022-11-05T23:38:27.566Z,101883.00
2022-11-05T23:44:14.228Z,101886.41
2022-11-05T23:49:43.630Z,101887.53
2022-11-05T23:55:10.258Z,101895.47
